Time;durP1;ratioP1;P1;durP2;ratioP2;P2;SDS_P1;SDS_P2;PMS_P1;PMS_P2;Temp;Humidity;BMP_temperature;BMP_pressure;BME280_temperature;BME280_humidity;BME280_pressure;Samples;Min_cycle;Max_cycle;Signal;HPM_P1;HPM_P2
2022/03/30 00:01:37;;;;;;;10.93;5.55;;;;;;;1.91;100.00;99899.38;5958502;29;20196;-91
2022/03/30 00:04:39;;;;;;;8.40;4.50;;;;;;;1.90;100.00;99900.25;5952311;29;20531;-91
2022/03/30 00:07:40;;;;;;;9.25;4.35;;;;;;;1.86;100.00;99906.47;5945674;29;20507;-91
2022/03/30 00:10:42;;;;;;;11.30;4.45;;;;;;;1.84;100.00;99898.06;5958423;29;20130;-91
2022/03/30 00:13:43;;;;;;;8.45;4.18;;;;;;;1.80;100.00;99904.22;5952982;29;20047;-91
2022/03/30 00:16:45;;;;;;;7.80;4.20;;;;;;;1.80;100.00;99898.28;5954059;29;20379;-91
2022/03/30 00:19:47;;;;;;;14.85;4.78;;;;;;;1.80;100.00;99896.56;5957645;29;20125;-91
2022/03/30 00:22:49;;;;;;;14.77;5.50;;;;;;;1.76;100.00;99896.78;5962755;29;20058;-91
2022/03/30 00:25:51;;;;;;;10.70;4.40;;;;;;;1.72;100.00;99893.59;5950582;29;20104;-91
2022/03/30 00:28:52;;;;;;;11.18;4.88;;;;;;;1.69;100.00;99891.19;5953514;29;20043;-91
2022/03/30 00:31:54;;;;;;;12.82;5.00;;;;;;;1.69;100.00;99888.63;5955298;29;20106;-91
2022/03/30 00:34:56;;;;;;;13.77;4.78;;;;;;;1.64;100.00;99886.34;5954287;29;21177;-91
2022/03/30 00:37:57;;;;;;;10.52;4.75;;;;;;;1.62;100.00;99889.88;5966508;29;20076;-91
2022/03/30 00:41:01;;;;;;;8.32;4.47;;;;;;;1.59;100.00;99890.00;5945287;29;20122;-91
2022/03/30 00:44:11;;;;;;;10.13;4.75;;;;;;;1.57;100.00;99886.75;5944410;29;20370;-91
2022/03/30 00:47:24;;;;;;;9.18;4.45;;;;;;;1.58;100.00;99886.66;5954279;29;20073;-91
2022/03/30 00:50:26;;;;;;;8.50;3.70;;;;;;;1.56;100.00;99885.06;5951251;29;20067;-91
2022/03/30 00:53:28;;;;;;;9.98;4.43;;;;;;;1.57;100.00;99887.56;5946070;29;20126;-91
2022/03/30 00:56:33;;;;;;;8.63;4.15;;;;;;;1.56;100.00;99887.63;5954288;29;20038;-91
2022/03/30 00:59:35;;;;;;;8.68;3.78;;;;;;;1.53;100.00;99880.16;5967129;29;20062;-90
2022/03/30 01:02:38;;;;;;;13.80;4.68;;;;;;;1.50;100.00;99881.13;5939387;29;20054;-91
2022/03/30 01:05:40;;;;;;;9.00;4.53;;;;;;;1.46;100.00;99872.78;5974663;29;20495;-91
2022/03/30 01:08:43;;;;;;;8.18;4.03;;;;;;;1.47;100.00;99871.91;5945154;29;20390;-91
2022/03/30 01:11:44;;;;;;;9.90;4.18;;;;;;;1.47;100.00;99877.00;5968689;29;20050;-91
2022/03/30 01:14:47;;;;;;;9.10;4.30;;;;;;;1.41;100.00;99871.41;5952074;29;20489;-91
2022/03/30 01:17:49;;;;;;;7.68;3.65;;;;;;;1.35;100.00;99870.00;5944984;29;20219;-91
2022/03/30 01:20:51;;;;;;;8.07;3.85;;;;;;;1.33;100.00;99866.69;5956763;29;20401;-91
2022/03/30 01:23:52;;;;;;;5.70;2.92;;;;;;;1.34;100.00;99863.22;5979325;29;20058;-91
2022/03/30 01:26:54;;;;;;;8.07;3.78;;;;;;;1.31;100.00;99854.94;5960767;29;20050;-91
2022/03/30 01:33:17;;;;;;;7.30;2.95;;;;;;;1.29;100.00;99853.28;5967160;29;20051;-91
2022/03/30 01:36:18;;;;;;;5.05;2.78;;;;;;;1.31;100.00;99852.38;5951263;29;20043;-91
2022/03/30 01:39:20;;;;;;;6.55;3.15;;;;;;;1.28;100.00;99843.16;5964582;29;20763;-90
2022/03/30 01:42:22;;;;;;;7.00;2.85;;;;;;;1.21;100.00;99837.53;5953411;29;20050;-91
2022/03/30 01:45:24;;;;;;;9.32;2.92;;;;;;;1.20;100.00;99837.66;5954006;29;20591;-91
2022/03/30 01:48:26;;;;;;;6.43;2.85;;;;;;;1.19;100.00;99830.88;5972311;29;20057;-91
2022/03/30 01:51:28;;;;;;;13.55;3.65;;;;;;;1.16;100.00;99826.75;5960217;29;20046;-91
2022/03/30 01:54:34;;;;;;;10.10;2.80;;;;;;;1.12;100.00;99819.34;5961184;29;20819;-91
2022/03/30 01:57:36;;;;;;;9.85;3.42;;;;;;;1.13;100.00;99814.19;5955914;29;20051;-91
2022/03/30 02:00:38;;;;;;;6.70;2.65;;;;;;;1.11;100.00;99810.88;5954965;29;20715;-91
2022/03/30 02:03:40;;;;;;;9.23;2.67;;;;;;;1.10;100.00;99813.53;5952862;29;20576;-91
2022/03/30 02:06:42;;;;;;;5.50;2.28;;;;;;;1.07;100.00;99812.78;5953391;29;20039;-91
2022/03/30 02:09:43;;;;;;;4.60;2.40;;;;;;;1.04;100.00;99810.41;5959640;29;20062;-91
2022/03/30 02:12:46;;;;;;;5.78;2.30;;;;;;;1.05;100.00;99806.94;5954695;29;20524;-91
2022/03/30 02:15:47;;;;;;;9.30;2.40;;;;;;;1.10;100.00;99804.16;5953793;29;20043;-91
2022/03/30 02:18:49;;;;;;;5.40;2.20;;;;;;;1.11;100.00;99800.69;5936493;29;20042;-91
2022/03/30 02:21:52;;;;;;;12.48;2.88;;;;;;;1.10;100.00;99801.59;5964351;29;20089;-91
2022/03/30 02:24:54;;;;;;;7.75;2.45;;;;;;;1.06;100.00;99798.38;5964388;29;20046;-90
2022/03/30 02:27:55;;;;;;;8.50;2.40;;;;;;;1.00;100.00;99791.06;5968042;29;20523;-91
2022/03/30 02:30:57;;;;;;;7.90;2.60;;;;;;;0.99;100.00;99789.41;5943607;29;20413;-90
2022/03/30 02:34:00;;;;;;;6.30;2.60;;;;;;;0.94;100.00;99790.53;5945079;29;20051;-91
2022/03/30 02:37:01;;;;;;;7.35;2.45;;;;;;;0.95;100.00;99782.84;5956538;29;20047;-90
2022/03/30 02:40:04;;;;;;;7.68;2.60;;;;;;;0.92;100.00;99775.34;5948612;29;20047;-91
2022/03/30 02:43:06;;;;;;;7.05;2.30;;;;;;;0.91;100.00;99780.50;5944721;29;20051;-90
2022/03/30 02:46:08;;;;;;;6.07;2.65;;;;;;;0.85;100.00;99776.56;5956199;29;20039;-91
2022/03/30 02:49:10;;;;;;;13.60;2.88;;;;;;;0.81;100.00;99773.31;5945175;29;20055;-90
2022/03/30 02:52:11;;;;;;;5.75;2.25;;;;;;;0.76;100.00;99764.28;5953772;29;20058;-91
2022/03/30 02:55:13;;;;;;;6.85;2.45;;;;;;;0.72;100.00;99766.19;5971998;29;20129;-91
2022/03/30 02:58:15;;;;;;;6.57;2.25;;;;;;;0.69;100.00;99757.84;5966330;29;20721;-91
2022/03/30 03:01:17;;;;;;;6.55;2.75;;;;;;;0.67;100.00;99762.19;5954580;29;20081;-91
2022/03/30 03:04:19;;;;;;;9.25;2.25;;;;;;;0.62;100.00;99758.19;5968346;29;20058;-90
2022/03/30 03:07:21;;;;;;;9.40;2.55;;;;;;;0.59;100.00;99753.22;5967824;29;20050;-91
2022/03/30 03:10:22;;;;;;;6.82;2.95;;;;;;;0.66;100.00;99758.00;5958510;29;20051;-90
2022/03/30 03:13:25;;;;;;;7.97;2.53;;;;;;;0.71;100.00;99748.41;5944633;29;20135;-91
2022/03/30 03:16:27;;;;;;;5.07;2.65;;;;;;;0.74;100.00;99745.69;5952028;29;20058;-91
2022/03/30 03:19:29;;;;;;;8.15;2.40;;;;;;;0.74;100.00;99738.06;5961995;29;20110;-91
2022/03/30 03:22:31;;;;;;;11.30;2.67;;;;;;;0.75;100.00;99732.09;5966071;29;20035;-91
2022/03/30 03:25:39;;;;;;;7.53;2.45;;;;;;;0.81;100.00;99734.31;5985103;29;20265;-91
2022/03/30 03:28:41;;;;;;;6.78;2.25;;;;;;;0.94;100.00;99725.13;5976796;29;20055;-91
2022/03/30 03:31:43;;;;;;;6.53;2.25;;;;;;;1.11;100.00;99716.59;5956723;29;20499;-91
2022/03/30 03:34:45;;;;;;;7.00;2.28;;;;;;;1.21;100.00;99719.47;5968015;29;20050;-91
2022/03/30 03:37:47;;;;;;;10.82;3.35;;;;;;;1.35;100.00;99711.91;5979291;29;20070;-91
2022/03/30 03:40:48;;;;;;;5.60;2.80;;;;;;;1.41;100.00;99714.13;5957884;29;20133;-91
2022/03/30 03:43:50;;;;;;;3.90;2.40;;;;;;;1.44;100.00;99708.88;5968986;29;20655;-91
2022/03/30 03:46:54;;;;;;;7.93;2.75;;;;;;;1.48;100.00;99710.34;5946181;29;20058;-91
2022/03/30 03:49:56;;;;;;;7.45;2.53;;;;;;;1.53;100.00;99712.63;5969734;29;20053;-91
2022/03/30 03:52:58;;;;;;;5.93;2.75;;;;;;;1.58;100.00;99712.41;5971930;29;20572;-90
2022/03/30 03:55:59;;;;;;;4.30;2.15;;;;;;;1.60;100.00;99708.84;5948159;29;20042;-90
2022/03/30 03:59:01;;;;;;;4.10;2.05;;;;;;;1.66;100.00;99708.50;5975341;29;20051;-91
2022/03/30 04:02:04;;;;;;;4.95;2.20;;;;;;;1.70;100.00;99709.16;5960257;29;20053;-91
2022/03/30 04:05:09;;;;;;;5.45;1.98;;;;;;;1.72;100.00;99699.72;5962843;29;20066;-90
2022/03/30 04:08:11;;;;;;;6.40;2.47;;;;;;;1.75;100.00;99704.63;5954011;29;20063;-91
2022/03/30 04:11:13;;;;;;;8.07;2.50;;;;;;;1.81;100.00;99695.81;5961293;29;20343;-91
2022/03/30 04:14:21;;;;;;;8.10;2.50;;;;;;;1.82;100.00;99702.56;5960273;29;20046;-91
2022/03/30 04:17:23;;;;;;;7.90;2.70;;;;;;;1.83;100.00;99707.56;5968784;29;20493;-91
2022/03/30 04:20:25;;;;;;;9.30;2.72;;;;;;;1.83;100.00;99699.09;5958366;29;20050;-91
2022/03/30 04:23:27;;;;;;;8.93;2.33;;;;;;;1.81;100.00;99698.34;5955913;29;20046;-91
2022/03/30 04:26:29;;;;;;;8.50;2.67;;;;;;;1.83;100.00;99697.38;5958785;29;20050;-91
2022/03/30 04:29:30;;;;;;;7.68;2.83;;;;;;;1.81;100.00;99696.63;5962668;29;20053;-91
2022/03/30 04:32:32;;;;;;;4.88;2.58;;;;;;;1.79;100.00;99693.34;5960330;29;20058;-91
2022/03/30 04:35:34;;;;;;;6.25;2.67;;;;;;;1.75;100.00;99684.22;5959963;29;20119;-91
2022/03/30 04:38:35;;;;;;;8.65;3.08;;;;;;;1.67;100.00;99692.31;5958367;29;20061;-91
2022/03/30 04:41:37;;;;;;;9.70;2.42;;;;;;;1.64;100.00;99681.44;5957555;29;20054;-91
2022/03/30 04:44:39;;;;;;;9.82;2.63;;;;;;;1.48;100.00;99687.38;5956544;29;20421;-91
2022/03/30 04:47:40;;;;;;;8.18;2.63;;;;;;;1.37;100.00;99682.06;5959042;29;20486;-91
2022/03/30 04:50:42;;;;;;;6.85;2.63;;;;;;;1.33;100.00;99675.47;5957132;29;20042;-91
2022/03/30 04:53:44;;;;;;;8.43;2.80;;;;;;;1.25;100.00;99670.00;5956990;29;20065;-91
2022/03/30 04:56:47;;;;;;;5.07;2.20;;;;;;;1.16;100.00;99671.28;5962406;29;20205;-91
2022/03/30 04:59:49;;;;;;;8.52;2.65;;;;;;;1.10;100.00;99670.81;5974488;29;20050;-90
2022/03/30 05:02:51;;;;;;;3.70;2.42;;;;;;;1.07;100.00;99676.91;5957099;29;20438;-91
2022/03/30 05:05:53;;;;;;;8.52;3.00;;;;;;;1.01;100.00;99680.56;5955946;29;20042;-91
2022/03/30 05:08:54;;;;;;;9.38;4.25;;;;;;;1.03;100.00;99685.59;5965241;29;20054;-91
2022/03/30 05:11:56;;;;;;;10.60;4.88;;;;;;;1.36;100.00;99677.03;5959539;29;20058;-91
2022/03/30 05:14:58;;;;;;;10.93;5.18;;;;;;;1.22;100.00;99672.72;5956908;29;20083;-91
2022/03/30 05:18:00;;;;;;;11.70;5.35;;;;;;;1.26;100.00;99674.97;5965901;29;20070;-91
2022/03/30 05:21:02;;;;;;;7.95;4.57;;;;;;;1.24;100.00;99683.63;5965397;29;20050;-91
2022/03/30 05:24:04;;;;;;;9.98;4.63;;;;;;;1.30;100.00;99675.66;5953054;29;20081;-91
2022/03/30 05:27:06;;;;;;;12.20;4.72;;;;;;;1.42;100.00;99677.53;5949615;29;20510;-91
2022/03/30 05:30:09;;;;;;;8.90;4.28;;;;;;;1.49;100.00;99670.34;5954940;29;20051;-91
2022/03/30 05:33:11;;;;;;;10.30;3.75;;;;;;;1.59;100.00;99668.97;5956368;29;20077;-91
2022/03/30 05:36:13;;;;;;;12.82;5.78;;;;;;;1.72;100.00;99664.81;5965880;29;20057;-91
2022/03/30 05:39:15;;;;;;;11.25;5.28;;;;;;;1.88;100.00;99654.53;5957392;29;20043;-91
2022/03/30 05:42:17;;;;;;;12.55;3.85;;;;;;;2.07;100.00;99661.16;5958169;29;20106;-91
2022/03/30 05:45:19;;;;;;;11.57;3.67;;;;;;;2.16;100.00;99658.06;5975649;29;20410;-91
2022/03/30 05:48:21;;;;;;;11.57;4.40;;;;;;;2.34;100.00;99662.09;5957088;29;20062;-91
2022/03/30 05:51:24;;;;;;;11.80;4.82;;;;;;;2.47;100.00;99662.19;5951971;29;20223;-91
2022/03/30 05:54:26;;;;;;;10.43;4.47;;;;;;;2.59;100.00;99663.22;5970855;29;20054;-91
2022/03/30 05:57:27;;;;;;;9.55;4.60;;;;;;;2.70;100.00;99658.25;5964565;29;20046;-91
2022/03/30 06:00:29;;;;;;;12.80;3.90;;;;;;;2.78;100.00;99660.34;5946373;29;20072;-91
2022/03/30 06:03:31;;;;;;;16.98;4.97;;;;;;;2.76;100.00;99659.66;5971396;29;20498;-91
2022/03/30 06:06:34;;;;;;;14.90;5.75;;;;;;;2.83;100.00;99658.34;5959920;29;20043;-91
2022/03/30 06:09:36;;;;;;;9.73;5.90;;;;;;;2.84;100.00;99656.63;5966428;29;20051;-91
2022/03/30 06:12:42;;;;;;;14.40;6.15;;;;;;;2.84;100.00;99664.28;5967410;29;20047;-91
2022/03/30 06:15:44;;;;;;;12.55;5.95;;;;;;;2.79;100.00;99667.94;5955823;29;20055;-91
2022/03/30 06:18:45;;;;;;;18.83;6.45;;;;;;;2.76;100.00;99663.00;5939084;29;20042;-91
2022/03/30 06:21:48;;;;;;;15.27;6.63;;;;;;;2.70;100.00;99663.38;5954510;29;20043;-91
2022/03/30 06:24:49;;;;;;;14.73;5.95;;;;;;;2.73;100.00;99665.75;5947716;29;20094;-91
2022/03/30 06:27:52;;;;;;;13.23;6.13;;;;;;;2.70;100.00;99667.66;5967235;29;20078;-90
2022/03/30 06:30:54;;;;;;;20.55;7.00;;;;;;;2.69;100.00;99671.16;5959301;29;20047;-91
2022/03/30 06:33:56;;;;;;;16.83;6.43;;;;;;;2.75;100.00;99671.56;5960041;29;20042;-91
2022/03/30 06:36:58;;;;;;;15.25;7.10;;;;;;;2.84;100.00;99671.97;5957926;29;20493;-91
2022/03/30 06:40:00;;;;;;;10.35;5.47;;;;;;;2.89;100.00;99670.75;5967865;29;20051;-91
2022/03/30 06:43:01;;;;;;;15.50;6.88;;;;;;;2.93;100.00;99667.09;5940068;29;20051;-91
2022/03/30 06:46:04;;;;;;;13.73;6.78;;;;;;;3.01;100.00;99674.31;5954219;29;20520;-90
2022/03/30 06:49:07;;;;;;;11.75;6.40;;;;;;;3.04;100.00;99671.56;5958675;29;20152;-91
2022/03/30 06:52:09;;;;;;;20.52;6.53;;;;;;;3.12;100.00;99666.78;5960729;29;20062;-91
2022/03/30 06:55:12;;;;;;;15.27;6.45;;;;;;;3.22;100.00;99672.16;5963324;29;20080;-91
2022/03/30 06:58:14;;;;;;;12.07;5.50;;;;;;;3.55;100.00;99671.78;5960666;29;20051;-91
2022/03/30 07:01:16;;;;;;;14.27;5.47;;;;;;;3.47;100.00;99673.97;5953866;29;20074;-91
2022/03/30 07:04:18;;;;;;;13.00;5.57;;;;;;;3.61;100.00;99671.38;5949061;29;20042;-91
2022/03/30 07:10:40;;;;;;;16.95;6.22;;;;;;;4.16;100.00;99664.41;5955765;29;20050;-91
2022/03/30 07:13:42;;;;;;;16.23;6.10;;;;;;;4.52;100.00;99663.69;5958935;29;20046;-91
2022/03/30 07:16:44;;;;;;;13.88;5.25;;;;;;;4.92;100.00;99671.22;5958504;29;20744;-91
2022/03/30 07:19:46;;;;;;;12.75;4.63;;;;;;;5.14;100.00;99660.28;5974518;29;20055;-91
2022/03/30 07:22:48;;;;;;;13.63;4.00;;;;;;;5.39;100.00;99661.09;5978735;29;20065;-91
2022/03/30 07:25:51;;;;;;;6.45;3.10;;;;;;;5.65;100.00;99659.22;5968243;29;20042;-91
2022/03/30 07:28:53;;;;;;;7.30;3.35;;;;;;;5.83;100.00;99652.75;5973960;29;20206;-91
2022/03/30 07:31:54;;;;;;;9.68;3.65;;;;;;;5.97;100.00;99659.47;5967220;29;20214;-90
2022/03/30 07:34:57;;;;;;;12.55;3.40;;;;;;;6.11;100.00;99655.91;5974740;29;20042;-91
2022/03/30 07:38:00;;;;;;;8.73;3.20;;;;;;;6.15;100.00;99649.56;5975840;29;20039;-91
2022/03/30 07:41:02;;;;;;;12.25;3.35;;;;;;;6.15;100.00;99656.47;5959705;29;20416;-91
2022/03/30 07:44:05;;;;;;;10.95;3.53;;;;;;;6.09;100.00;99651.78;5960600;29;20442;-90
2022/03/30 07:47:07;;;;;;;8.65;3.28;;;;;;;6.11;100.00;99650.75;5962588;29;20046;-91
2022/03/30 07:50:11;;;;;;;9.00;3.20;;;;;;;6.13;100.00;99656.56;5960093;29;20043;-91
2022/03/30 07:53:13;;;;;;;12.98;3.50;;;;;;;6.06;100.00;99652.00;5977000;29;20034;-91
2022/03/30 07:56:14;;;;;;;5.90;2.85;;;;;;;6.00;100.00;99637.88;5965823;29;20402;-91
2022/03/30 07:59:16;;;;;;;8.60;3.72;;;;;;;5.92;100.00;99645.31;5960684;29;20565;-91
2022/03/30 08:02:18;;;;;;;10.25;3.17;;;;;;;5.91;100.00;99643.66;5960990;29;20050;-91
2022/03/30 08:05:21;;;;;;;10.35;3.15;;;;;;;6.03;100.00;99643.59;5957061;29;20125;-91
2022/03/30 08:08:23;;;;;;;9.70;3.35;;;;;;;6.15;98.21;99646.19;5960453;29;20416;-91
2022/03/30 08:11:28;;;;;;;9.10;2.92;;;;;;;6.17;99.75;99639.19;5958605;29;20043;-91
2022/03/30 08:14:30;;;;;;;12.88;3.55;;;;;;;6.27;99.77;99647.84;5946363;29;20420;-91
2022/03/30 08:17:38;;;;;;;8.82;2.55;;;;;;;6.40;96.53;99638.28;5960508;29;20112;-91
2022/03/30 08:24:02;;;;;;;7.35;2.10;;;;;;;6.43;95.52;99638.06;5957445;29;20046;-91
2022/03/30 08:27:04;;;;;;;9.60;2.30;;;;;;;6.52;94.13;99635.72;5970022;29;20057;-90
2022/03/30 08:30:06;;;;;;;9.68;2.80;;;;;;;6.61;94.37;99642.72;5959216;29;20864;-91
2022/03/30 08:33:08;;;;;;;8.88;2.65;;;;;;;6.87;95.72;99643.28;5968235;29;20819;-91
2022/03/30 08:36:11;;;;;;;8.23;2.78;;;;;;;7.23;92.20;99649.88;5962822;29;20199;-91
2022/03/30 08:39:13;;;;;;;6.40;3.22;;;;;;;7.60;90.15;99646.91;5955372;29;20053;-91
2022/03/30 08:42:17;;;;;;;10.27;2.60;;;;;;;7.91;83.35;99639.28;5968884;29;20038;-91
2022/03/30 08:45:19;;;;;;;8.27;2.47;;;;;;;8.12;83.87;99642.69;5947103;29;20549;-91
2022/03/30 08:48:21;;;;;;;11.60;2.58;;;;;;;8.31;80.66;99641.94;5958137;29;20417;-91
2022/03/30 08:51:28;;;;;;;7.20;2.80;;;;;;;8.69;79.43;99640.50;5967108;29;20049;-91
2022/03/30 08:54:32;;;;;;;10.80;2.20;;;;;;;8.97;76.92;99640.72;5967954;29;20398;-91
2022/03/30 08:57:34;;;;;;;8.32;2.72;;;;;;;9.16;75.59;99634.75;5971172;29;20042;-91
2022/03/30 09:00:36;;;;;;;12.07;2.45;;;;;;;9.40;72.56;99645.53;5966666;29;20902;-91
2022/03/30 09:04:01;;;;;;;9.57;2.60;;;;;;;9.51;66.06;99641.16;5950636;29;20054;-91
2022/03/30 09:07:04;;;;;;;7.72;2.35;;;;;;;9.58;68.07;99634.50;5975793;29;20045;-90
2022/03/30 09:10:11;;;;;;;5.65;2.70;;;;;;;9.61;65.71;99637.63;5959653;29;20508;-91
2022/03/30 09:13:17;;;;;;;7.53;2.33;;;;;;;9.64;66.43;99633.97;5968110;29;20050;-91
2022/03/30 09:16:19;;;;;;;10.82;2.65;;;;;;;9.87;67.65;99624.16;5968709;29;20166;-90
2022/03/30 09:19:22;;;;;;;10.93;2.25;;;;;;;9.95;65.01;99623.44;5964823;29;20069;-91
2022/03/30 09:22:27;;;;;;;8.68;2.10;;;;;;;10.07;64.85;99625.72;5959444;29;20079;-91
2022/03/30 09:25:31;;;;;;;7.68;2.60;;;;;;;10.19;64.28;99628.16;5969035;29;20085;-91
2022/03/30 09:28:32;;;;;;;11.10;2.65;;;;;;;10.27;62.07;99630.84;5964364;29;20517;-91
2022/03/30 09:31:36;;;;;;;7.32;2.42;;;;;;;10.10;62.51;99619.47;5962439;29;20063;-91
2022/03/30 09:34:50;;;;;;;7.90;2.40;;;;;;;9.95;59.87;99613.09;5956625;29;20466;-92
2022/03/30 09:38:19;;;;;;;8.45;2.08;;;;;;;9.71;60.01;99619.53;5980708;29;20211;-91
2022/03/30 09:41:21;;;;;;;7.70;2.38;;;;;;;9.57;59.27;99615.63;5957254;29;20046;-91
2022/03/30 09:44:23;;;;;;;7.30;2.25;;;;;;;9.46;62.10;99613.16;5936393;29;20527;-91
2022/03/30 09:47:36;;;;;;;9.13;2.15;;;;;;;9.44;60.04;99617.63;5958686;29;20057;-91
2022/03/30 09:50:43;;;;;;;8.65;2.10;;;;;;;9.28;61.22;99608.69;5961718;29;20135;-91
2022/03/30 09:53:46;;;;;;;10.18;2.83;;;;;;;9.25;61.61;99600.41;5967819;29;20526;-91
2022/03/30 09:56:48;;;;;;;5.22;2.10;;;;;;;9.38;60.50;99606.09;5963330;29;20075;-91
2022/03/30 10:00:20;;;;;;;12.38;2.58;;;;;;;9.50;59.65;99604.19;5957447;29;20533;-91
2022/03/30 10:03:23;;;;;;;9.95;2.40;;;;;;;9.67;59.14;99598.34;5947764;29;20054;-91
2022/03/30 10:06:40;;;;;;;7.05;2.17;;;;;;;9.87;58.70;99593.94;5949719;29;20051;-91
2022/03/30 10:09:47;;;;;;;9.77;2.42;;;;;;;10.12;55.73;99595.09;5970280;29;20112;-91
2022/03/30 10:12:49;;;;;;;9.38;2.65;;;;;;;10.20;55.05;99596.97;5974446;29;20412;-91
2022/03/30 10:15:52;;;;;;;8.32;2.42;;;;;;;10.28;56.07;99591.94;5958521;29;20046;-91
2022/03/30 10:18:54;;;;;;;9.63;2.90;;;;;;;10.37;56.04;99589.47;5957555;29;20042;-91
2022/03/30 10:22:34;;;;;;;8.50;2.35;;;;;;;10.55;55.96;99577.38;5962092;29;20053;-91
2022/03/30 10:26:00;;;;;;;5.95;2.60;;;;;;;10.54;53.38;99576.56;5952708;29;20050;-91
2022/03/30 10:29:08;;;;;;;8.48;2.42;;;;;;;10.57;55.57;99571.09;5951707;29;20070;-90
2022/03/30 10:32:22;;;;;;;6.68;2.67;;;;;;;10.66;54.09;99566.03;5964549;29;20088;-90
2022/03/30 10:35:46;;;;;;;6.90;2.47;;;;;;;10.71;55.67;99566.41;5956625;29;20055;-90
2022/03/30 10:39:14;;;;;;;6.55;2.25;;;;;;;10.96;55.15;99570.88;5939470;29;20527;-90
2022/03/30 10:42:54;;;;;;;11.70;2.33;;;;;;;11.12;54.36;99564.19;5960175;29;20134;-91
2022/03/30 10:45:58;;;;;;;7.70;2.40;;;;;;;11.04;53.06;99561.56;5961338;29;20074;-91
2022/03/30 10:49:38;;;;;;;8.82;2.90;;;;;;;10.89;52.34;99559.47;5971787;29;20385;-91
2022/03/30 10:52:43;;;;;;;5.43;2.85;;;;;;;10.81;51.79;99550.78;5958500;29;20080;-90
2022/03/30 10:55:44;;;;;;;7.03;2.70;;;;;;;10.77;53.42;99558.84;5958959;29;20059;-90
2022/03/30 10:58:49;;;;;;;6.57;2.40;;;;;;;10.73;51.00;99554.94;5959046;29;20099;-90
2022/03/30 11:02:16;;;;;;;4.85;2.40;;;;;;;10.84;52.61;99543.56;5969592;29;20457;-90
2022/03/30 11:05:33;;;;;;;8.73;2.65;;;;;;;10.96;51.58;99542.38;5956956;29;20493;-91
2022/03/30 11:08:36;;;;;;;8.45;2.85;;;;;;;11.07;50.20;99538.75;5961878;29;20918;-90
2022/03/30 11:11:43;;;;;;;11.18;2.60;;;;;;;11.12;51.86;99540.91;5958935;29;20061;-90
2022/03/30 11:15:05;;;;;;;6.30;2.55;;;;;;;11.40;52.32;99526.88;5964405;29;20129;-91
2022/03/30 11:18:18;;;;;;;7.15;2.53;;;;;;;11.66;50.62;99530.44;5957630;29;20035;-91
2022/03/30 11:21:21;;;;;;;10.52;2.72;;;;;;;11.93;49.69;99519.13;5959868;29;20519;-91
2022/03/30 11:24:24;;;;;;;5.50;2.50;;;;;;;12.15;48.83;99515.97;5959550;29;20118;-91
2022/03/30 11:27:26;;;;;;;9.20;2.97;;;;;;;12.21;48.76;99519.72;5963949;29;20058;-91
2022/03/30 11:30:30;;;;;;;14.25;3.63;;;;;;;12.24;49.14;99509.84;5962039;29;20165;-91
2022/03/30 11:33:34;;;;;;;12.18;3.80;;;;;;;12.33;47.54;99510.69;5941944;29;20051;-91
2022/03/30 11:36:36;;;;;;;12.68;4.45;;;;;;;12.37;47.03;99506.81;5959078;29;20043;-91
2022/03/30 11:39:39;;;;;;;9.82;4.10;;;;;;;12.29;51.15;99504.97;5961585;29;20051;-91
2022/03/30 11:42:44;;;;;;;13.63;4.65;;;;;;;12.36;50.30;99499.19;5962222;29;20059;-91
2022/03/30 11:45:47;;;;;;;10.13;4.50;;;;;;;12.55;48.97;99496.31;5966596;29;20216;-92
2022/03/30 11:48:49;;;;;;;12.98;5.43;;;;;;;12.69;44.85;99487.91;5973436;29;20055;-91
2022/03/30 11:51:52;;;;;;;14.75;4.50;;;;;;;12.69;47.25;99489.66;5960906;29;20130;-91
2022/03/30 11:54:56;;;;;;;8.63;3.08;;;;;;;12.58;46.51;99495.97;5958998;29;20522;-92
2022/03/30 11:58:00;;;;;;;14.68;3.70;;;;;;;12.37;45.49;99493.00;5973774;29;20050;-92
2022/03/30 12:01:05;;;;;;;13.95;4.65;;;;;;;12.49;46.70;99489.16;5958512;29;20043;-92
2022/03/30 12:04:07;;;;;;;8.75;3.85;;;;;;;12.75;46.69;99493.44;5972389;29;20077;-92
2022/03/30 12:07:14;;;;;;;12.80;3.58;;;;;;;12.69;44.81;99487.91;5960594;29;20099;-91
2022/03/30 12:10:16;;;;;;;8.90;2.85;;;;;;;12.36;48.56;99475.81;5964451;29;20047;-90
2022/03/30 12:13:24;;;;;;;8.63;2.70;;;;;;;12.39;47.81;99473.72;5947455;29;20057;-90
2022/03/30 12:16:32;;;;;;;8.60;3.60;;;;;;;12.73;47.89;99472.00;5954606;29;20126;-91
2022/03/30 12:19:34;;;;;;;8.30;3.50;;;;;;;12.88;45.85;99468.59;5959255;29;20071;-90
2022/03/30 12:22:38;;;;;;;10.35;4.47;;;;;;;13.11;45.49;99473.94;5967905;29;20058;-90
2022/03/30 12:25:40;;;;;;;6.88;2.95;;;;;;;13.27;45.55;99461.94;5956001;29;20134;-90
2022/03/30 12:28:42;;;;;;;7.85;2.92;;;;;;;13.08;42.24;99465.66;5956783;29;20413;-91
2022/03/30 12:31:53;;;;;;;7.20;2.88;;;;;;;12.71;45.03;99457.38;5960002;29;20086;-90
2022/03/30 12:35:10;;;;;;;8.65;3.40;;;;;;;12.97;44.49;99458.19;5953406;29;20055;-90
2022/03/30 12:38:14;;;;;;;7.85;3.10;;;;;;;13.18;44.33;99450.72;5959464;29;20066;-90
2022/03/30 12:41:24;;;;;;;10.70;3.58;;;;;;;13.55;46.04;99449.38;5951664;29;20051;-90
2022/03/30 12:44:31;;;;;;;5.28;2.75;;;;;;;13.78;43.71;99459.84;5950446;29;20051;-90
2022/03/30 12:47:38;;;;;;;7.68;2.67;;;;;;;14.03;42.77;99460.56;5950350;29;20083;-90
2022/03/30 12:50:42;;;;;;;7.00;3.33;;;;;;;14.16;41.45;99457.41;5948437;29;20342;-90
2022/03/30 12:53:47;;;;;;;4.80;2.58;;;;;;;14.28;40.65;99461.25;5939729;29;20054;-90
2022/03/30 12:56:49;;;;;;;8.93;3.78;;;;;;;14.04;41.25;99449.19;5949976;29;20035;-90
2022/03/30 12:59:50;;;;;;;8.77;3.08;;;;;;;14.22;41.42;99446.31;5949015;29;20518;-90
2022/03/30 13:03:30;;;;;;;7.90;2.83;;;;;;;14.02;39.68;99452.94;5950439;29;20410;-91
2022/03/30 13:06:32;;;;;;;8.75;3.08;;;;;;;13.60;41.22;99446.28;5949197;29;20050;-91
2022/03/30 13:09:59;;;;;;;6.40;2.78;;;;;;;13.22;42.35;99443.41;5945677;29;20043;-90
2022/03/30 13:13:05;;;;;;;6.85;3.25;;;;;;;12.92;44.30;99440.53;5948747;29;20054;-90
2022/03/30 13:16:11;;;;;;;7.00;3.30;;;;;;;12.68;44.05;99436.94;5949825;29;20055;-91
2022/03/30 13:19:27;;;;;;;6.43;2.95;;;;;;;12.55;45.29;99436.59;5950032;29;20462;-90
2022/03/30 13:22:29;;;;;;;7.82;2.97;;;;;;;12.55;45.67;99441.00;5934147;29;20050;-91
2022/03/30 13:25:44;;;;;;;6.07;2.63;;;;;;;12.29;44.99;99434.91;5947930;29;20424;-90
2022/03/30 13:28:46;;;;;;;7.68;2.35;;;;;;;12.13;45.42;99431.50;5949401;29;20663;-91
2022/03/30 13:31:48;;;;;;;6.10;3.13;;;;;;;11.93;46.17;99426.56;5950570;29;20074;-91
2022/03/30 13:34:50;;;;;;;6.70;2.33;;;;;;;11.53;46.39;99425.41;5950212;29;20425;-90
2022/03/30 13:37:52;;;;;;;8.00;3.33;;;;;;;11.61;45.99;99424.63;5950728;29;20652;-91
2022/03/30 13:40:55;;;;;;;6.25;2.90;;;;;;;11.33;47.57;99414.44;5951479;29;20429;-91
2022/03/30 13:43:58;;;;;;;4.57;2.40;;;;;;;11.67;47.86;99418.00;5950149;29;20039;-91
2022/03/30 13:47:00;;;;;;;7.47;2.65;;;;;;;11.99;46.62;99414.75;5948063;29;20103;-92
2022/03/30 13:50:03;;;;;;;5.85;2.65;;;;;;;12.20;46.18;99415.16;5949642;29;20053;-91
2022/03/30 13:53:07;;;;;;;10.48;2.40;;;;;;;12.16;44.41;99415.63;5950996;29;20815;-91
2022/03/30 13:56:10;;;;;;;7.55;2.78;;;;;;;12.00;44.81;99416.38;5951486;29;20047;-91
2022/03/30 13:59:12;;;;;;;7.95;2.70;;;;;;;12.02;44.84;99411.84;5951999;29;20047;-91
2022/03/30 14:02:14;;;;;;;9.52;2.53;;;;;;;11.80;45.20;99406.25;5948018;29;20039;-91
2022/03/30 14:05:16;;;;;;;5.30;2.40;;;;;;;11.85;45.55;99406.59;5954678;29;20189;-91
2022/03/30 14:08:19;;;;;;;8.00;2.95;;;;;;;11.83;47.11;99402.53;5952849;29;20096;-90
2022/03/30 14:11:21;;;;;;;4.70;2.20;;;;;;;-145.48;100.00;64539.38;5953549;29;20576;-91
2022/03/30 14:14:23;;;;;;;3.63;1.98;;;;;;;-145.48;100.00;64539.38;5947277;29;20533;-91
2022/03/30 14:17:25;;;;;;;5.20;2.47;;;;;;;-145.48;100.00;64539.38;5940724;29;20131;-91
2022/03/30 14:20:28;;;;;;;6.57;2.25;;;;;;;-145.48;100.00;64539.38;5950526;29;20497;-91
2022/03/30 14:23:29;;;;;;;7.40;2.33;;;;;;;-145.48;100.00;64539.38;5948191;29;20055;-92
2022/03/30 14:26:31;;;;;;;6.68;2.97;;;;;;;-145.48;100.00;64539.38;5947923;29;20051;-91
2022/03/30 14:29:33;;;;;;;6.75;2.42;;;;;;;11.50;44.44;99399.81;5949515;29;20051;-91
2022/03/30 14:32:36;;;;;;;4.30;2.35;;;;;;;10.95;45.07;99398.31;5948326;29;20184;-91
2022/03/30 14:35:38;;;;;;;6.88;2.25;;;;;;;11.13;45.57;99387.13;5949981;29;20091;-91